sensor_id;sensor_type;location;lat;lon;timestamp;pressure;altitude;pressure_sealevel;temperature;humidity
61292;BME280;47165;42.664;23.368;2022-08-11T00:00:18;95146.28;;;22.30;57.09
61292;BME280;47165;42.664;23.368;2022-08-11T00:02:49;95145.28;;;22.31;57.05
61292;BME280;47165;42.664;23.368;2022-08-11T00:05:19;95147.66;;;22.34;56.99
61292;BME280;47165;42.664;23.368;2022-08-11T00:10:20;95149.63;;;22.32;57.25
61292;BME280;47165;42.664;23.368;2022-08-11T00:12:53;95149.47;;;22.34;57.15
61292;BME280;47165;42.664;23.368;2022-08-11T00:15:19;95140.13;;;22.29;57.25
61292;BME280;47165;42.664;23.368;2022-08-11T00:17:45;95146.63;;;21.91;58.62
61292;BME280;47165;42.664;23.368;2022-08-11T00:20:13;95144.31;;;21.96;58.41
61292;BME280;47165;42.664;23.368;2022-08-11T00:22:41;95144.38;;;22.04;58.33
61292;BME280;47165;42.664;23.368;2022-08-11T00:25:10;95147.91;;;22.05;58.07
61292;BME280;47165;42.664;23.368;2022-08-11T00:27:37;95145.00;;;21.98;58.46
61292;BME280;47165;42.664;23.368;2022-08-11T00:30:05;95138.56;;;22.01;58.53
61292;BME280;47165;42.664;23.368;2022-08-11T00:32:32;95140.59;;;22.07;58.08
61292;BME280;47165;42.664;23.368;2022-08-11T00:34:59;95142.19;;;22.00;58.47
61292;BME280;47165;42.664;23.368;2022-08-11T00:37:26;95134.53;;;21.97;58.83
61292;BME280;47165;42.664;23.368;2022-08-11T00:39:54;95136.88;;;22.00;58.56
61292;BME280;47165;42.664;23.368;2022-08-11T00:43:00;95136.66;;;21.93;58.80
61292;BME280;47165;42.664;23.368;2022-08-11T00:45:38;95139.72;;;21.80;59.34
61292;BME280;47165;42.664;23.368;2022-08-11T00:51:09;95139.25;;;21.67;59.85
61292;BME280;47165;42.664;23.368;2022-08-11T00:53:51;95137.00;;;21.72;59.71
61292;BME280;47165;42.664;23.368;2022-08-11T01:02:16;95134.53;;;21.97;59.10
61292;BME280;47165;42.664;23.368;2022-08-11T01:10:13;95137.28;;;22.05;58.67
61292;BME280;47165;42.664;23.368;2022-08-11T01:16:04;95134.75;;;22.03;58.70
61292;BME280;47165;42.664;23.368;2022-08-11T01:19:10;95128.13;;;22.07;58.65
61292;BME280;47165;42.664;23.368;2022-08-11T01:37:41;95123.66;;;22.08;58.66
61292;BME280;47165;42.664;23.368;2022-08-11T01:40:39;95116.28;;;22.02;58.64
61292;BME280;47165;42.664;23.368;2022-08-11T01:54:33;95117.59;;;21.80;59.53
61292;BME280;47165;42.664;23.368;2022-08-11T01:59:49;95119.16;;;21.64;59.96
61292;BME280;47165;42.664;23.368;2022-08-11T02:13:36;95115.19;;;21.68;60.14
61292;BME280;47165;42.664;23.368;2022-08-11T02:16:20;95110.41;;;21.72;60.01
61292;BME280;47165;42.664;23.368;2022-08-11T02:22:22;95115.41;;;21.75;59.60
61292;BME280;47165;42.664;23.368;2022-08-11T02:25:37;95118.28;;;21.82;59.50
61292;BME280;47165;42.664;23.368;2022-08-11T02:28:17;95120.72;;;21.75;59.66
61292;BME280;47165;42.664;23.368;2022-08-11T02:33:43;95119.00;;;21.66;59.85
61292;BME280;47165;42.664;23.368;2022-08-11T02:36:33;95117.09;;;21.76;59.68
61292;BME280;47165;42.664;23.368;2022-08-11T02:39:07;95120.44;;;21.78;59.66
61292;BME280;47165;42.664;23.368;2022-08-11T02:41:58;95117.47;;;21.81;59.55
61292;BME280;47165;42.664;23.368;2022-08-11T02:45:10;95117.78;;;21.78;59.41
61292;BME280;47165;42.664;23.368;2022-08-11T02:48:05;95114.25;;;21.78;59.45
61292;BME280;47165;42.664;23.368;2022-08-11T02:53:43;95109.75;;;21.70;59.73
61292;BME280;47165;42.664;23.368;2022-08-11T02:56:20;95117.03;;;21.68;59.67
61292;BME280;47165;42.664;23.368;2022-08-11T02:59:05;95118.53;;;21.70;59.53
61292;BME280;47165;42.664;23.368;2022-08-11T03:02:15;95120.91;;;21.56;60.13
61292;BME280;47165;42.664;23.368;2022-08-11T03:05:11;95117.84;;;21.50;60.12
61292;BME280;47165;42.664;23.368;2022-08-11T03:13:28;95126.63;;;21.33;60.91
61292;BME280;47165;42.664;23.368;2022-08-11T03:16:26;95118.94;;;21.30;60.77
61292;BME280;47165;42.664;23.368;2022-08-11T03:22:04;95128.81;;;21.38;60.72
61292;BME280;47165;42.664;23.368;2022-08-11T03:30:16;95120.53;;;21.23;61.06
61292;BME280;47165;42.664;23.368;2022-08-11T03:45:04;95125.25;;;21.29;61.29
61292;BME280;47165;42.664;23.368;2022-08-11T03:48:07;95124.94;;;21.32;61.12
61292;BME280;47165;42.664;23.368;2022-08-11T04:12:44;95133.13;;;21.39;60.71
61292;BME280;47165;42.664;23.368;2022-08-11T04:35:24;95148.47;;;21.27;60.59
61292;BME280;47165;42.664;23.368;2022-08-11T04:49:16;95141.03;;;21.30;60.33
61292;BME280;47165;42.664;23.368;2022-08-11T04:58:29;95144.22;;;21.34;60.53
61292;BME280;47165;42.664;23.368;2022-08-11T05:04:26;95149.25;;;21.37;60.65
61292;BME280;47165;42.664;23.368;2022-08-11T05:15:00;95147.41;;;21.47;60.44
61292;BME280;47165;42.664;23.368;2022-08-11T05:18:07;95143.28;;;21.53;60.05
61292;BME280;47165;42.664;23.368;2022-08-11T05:20:55;95145.25;;;21.51;60.21
61292;BME280;47165;42.664;23.368;2022-08-11T05:23:45;95142.38;;;21.44;60.28
61292;BME280;47165;42.664;23.368;2022-08-11T05:26:41;95133.81;;;21.41;60.44
61292;BME280;47165;42.664;23.368;2022-08-11T05:33:03;95142.22;;;21.46;60.79
61292;BME280;47165;42.664;23.368;2022-08-11T05:35:49;95136.16;;;21.54;60.33
61292;BME280;47165;42.664;23.368;2022-08-11T05:38:25;95134.56;;;21.61;60.30
61292;BME280;47165;42.664;23.368;2022-08-11T05:41:12;95140.69;;;21.61;59.82
61292;BME280;47165;42.664;23.368;2022-08-11T05:44:02;95138.22;;;21.60;60.15
61292;BME280;47165;42.664;23.368;2022-08-11T05:46:47;95146.41;;;21.66;60.04
61292;BME280;47165;42.664;23.368;2022-08-11T05:49:33;95138.13;;;21.69;59.73
61292;BME280;47165;42.664;23.368;2022-08-11T05:52:21;95135.16;;;21.73;59.63
61292;BME280;47165;42.664;23.368;2022-08-11T05:55:06;95137.22;;;21.79;59.63
61292;BME280;47165;42.664;23.368;2022-08-11T05:58:03;95140.41;;;21.82;59.47
61292;BME280;47165;42.664;23.368;2022-08-11T06:00:30;95136.06;;;21.81;59.40
61292;BME280;47165;42.664;23.368;2022-08-11T06:03:00;95142.06;;;21.83;59.29
61292;BME280;47165;42.664;23.368;2022-08-11T06:05:36;95143.75;;;21.84;59.43
61292;BME280;47165;42.664;23.368;2022-08-11T06:08:03;95144.44;;;21.86;59.56
61292;BME280;47165;42.664;23.368;2022-08-11T06:10:33;95144.66;;;21.93;59.48
61292;BME280;47165;42.664;23.368;2022-08-11T06:12:59;95139.31;;;21.93;59.35
61292;BME280;47165;42.664;23.368;2022-08-11T06:15:26;95141.84;;;21.95;59.00
61292;BME280;47165;42.664;23.368;2022-08-11T06:17:54;95133.41;;;21.81;59.47
61292;BME280;47165;42.664;23.368;2022-08-11T06:20:20;95138.25;;;21.86;59.54
61292;BME280;47165;42.664;23.368;2022-08-11T06:22:54;95129.00;;;21.90;58.64
61292;BME280;47165;42.664;23.368;2022-08-11T06:25:20;95134.22;;;22.00;58.79
61292;BME280;47165;42.664;23.368;2022-08-11T06:27:53;95129.13;;;22.06;58.74
61292;BME280;47165;42.664;23.368;2022-08-11T06:33:17;95126.75;;;22.21;58.08
61292;BME280;47165;42.664;23.368;2022-08-11T06:36:10;95121.81;;;22.26;57.25
61292;BME280;47165;42.664;23.368;2022-08-11T06:41:37;95125.22;;;22.37;57.27
61292;BME280;47165;42.664;23.368;2022-08-11T06:46:39;95130.56;;;22.45;57.32
61292;BME280;47165;42.664;23.368;2022-08-11T06:49:12;95131.78;;;22.50;56.59
61292;BME280;47165;42.664;23.368;2022-08-11T06:52:05;95129.31;;;22.57;56.20
61292;BME280;47165;42.664;23.368;2022-08-11T06:54:35;95126.53;;;22.67;55.71
61292;BME280;47165;42.664;23.368;2022-08-11T06:57:02;95124.91;;;22.74;55.70
61292;BME280;47165;42.664;23.368;2022-08-11T06:59:48;95118.78;;;22.82;55.19
61292;BME280;47165;42.664;23.368;2022-08-11T07:02:44;95117.84;;;22.91;54.29
61292;BME280;47165;42.664;23.368;2022-08-11T07:05:38;95121.50;;;22.98;53.23
61292;BME280;47165;42.664;23.368;2022-08-11T07:14:51;95133.63;;;23.27;52.03
61292;BME280;47165;42.664;23.368;2022-08-11T07:21:14;95135.34;;;23.44;50.36
61292;BME280;47165;42.664;23.368;2022-08-11T07:24:09;95137.03;;;23.54;50.45
61292;BME280;47165;42.664;23.368;2022-08-11T07:26:55;95134.06;;;23.65;50.75
61292;BME280;47165;42.664;23.368;2022-08-11T07:29:41;95134.75;;;23.75;48.91
61292;BME280;47165;42.664;23.368;2022-08-11T07:32:24;95132.09;;;23.83;49.76
61292;BME280;47165;42.664;23.368;2022-08-11T07:34:57;95132.09;;;23.83;49.02
61292;BME280;47165;42.664;23.368;2022-08-11T07:37:28;95131.09;;;23.93;48.72
61292;BME280;47165;42.664;23.368;2022-08-11T07:39:57;95118.22;;;23.63;49.16
61292;BME280;47165;42.664;23.368;2022-08-11T07:42:29;95122.78;;;24.12;48.73
61292;BME280;47165;42.664;23.368;2022-08-11T07:44:56;95121.28;;;24.90;45.83
61292;BME280;47165;42.664;23.368;2022-08-11T07:47:42;95104.47;;;25.52;43.56
61292;BME280;47165;42.664;23.368;2022-08-11T07:50:29;95105.66;;;25.96;42.32
61292;BME280;47165;42.664;23.368;2022-08-11T07:53:14;95112.56;;;26.13;41.86
61292;BME280;47165;42.664;23.368;2022-08-11T07:55:41;95107.50;;;26.71;41.19
61292;BME280;47165;42.664;23.368;2022-08-11T07:58:07;95107.81;;;27.13;39.97
61292;BME280;47165;42.664;23.368;2022-08-11T08:00:54;95104.31;;;27.12;39.56
61292;BME280;47165;42.664;23.368;2022-08-11T08:03:40;95108.09;;;27.33;39.20
61292;BME280;47165;42.664;23.368;2022-08-11T08:06:26;95105.53;;;27.61;38.81
61292;BME280;47165;42.664;23.368;2022-08-11T08:09:11;95096.84;;;27.80;38.36
61292;BME280;47165;42.664;23.368;2022-08-11T08:11:56;95105.44;;;28.12;37.89
61292;BME280;47165;42.664;23.368;2022-08-11T08:14:42;95098.03;;;28.14;37.64
61292;BME280;47165;42.664;23.368;2022-08-11T08:17:28;95105.81;;;28.09;37.44
61292;BME280;47165;42.664;23.368;2022-08-11T08:20:15;95104.81;;;28.10;37.80
61292;BME280;47165;42.664;23.368;2022-08-11T08:22:48;95097.09;;;28.28;36.91
61292;BME280;47165;42.664;23.368;2022-08-11T08:25:15;95089.63;;;28.52;36.48
61292;BME280;47165;42.664;23.368;2022-08-11T08:27:42;95096.13;;;28.64;36.55
61292;BME280;47165;42.664;23.368;2022-08-11T08:30:11;95088.22;;;28.56;36.46
61292;BME280;47165;42.664;23.368;2022-08-11T08:32:56;95093.63;;;28.63;37.08
61292;BME280;47165;42.664;23.368;2022-08-11T08:35:23;95082.03;;;28.34;37.07
61292;BME280;47165;42.664;23.368;2022-08-11T08:37:50;95081.88;;;28.42;36.66
61292;BME280;47165;42.664;23.368;2022-08-11T08:40:16;95079.97;;;28.99;35.99
61292;BME280;47165;42.664;23.368;2022-08-11T08:42:52;95086.50;;;29.18;35.51
61292;BME280;47165;42.664;23.368;2022-08-11T08:45:20;95081.25;;;29.03;35.78
61292;BME280;47165;42.664;23.368;2022-08-11T08:48:07;95079.88;;;29.14;34.86
61292;BME280;47165;42.664;23.368;2022-08-11T08:50:39;95071.00;;;28.85;34.73
61292;BME280;47165;42.664;23.368;2022-08-11T08:53:29;95073.50;;;28.80;35.46
61292;BME280;47165;42.664;23.368;2022-08-11T08:55:58;95072.28;;;28.89;35.71
61292;BME280;47165;42.664;23.368;2022-08-11T08:58:25;95071.63;;;29.22;35.53
61292;BME280;47165;42.664;23.368;2022-08-11T09:00:53;95067.56;;;29.46;34.17
61292;BME280;47165;42.664;23.368;2022-08-11T09:03:19;95069.25;;;29.61;34.63
61292;BME280;47165;42.664;23.368;2022-08-11T09:05:47;95083.25;;;29.36;35.42
61292;BME280;47165;42.664;23.368;2022-08-11T09:08:16;95076.16;;;29.15;35.08
61292;BME280;47165;42.664;23.368;2022-08-11T09:10:45;95071.41;;;28.76;35.96
61292;BME280;47165;42.664;23.368;2022-08-11T09:13:13;95081.00;;;27.85;37.58
61292;BME280;47165;42.664;23.368;2022-08-11T09:15:39;95071.72;;;27.45;38.40
61292;BME280;47165;42.664;23.368;2022-08-11T09:18:06;95072.44;;;27.54;38.48
61292;BME280;47165;42.664;23.368;2022-08-11T09:20:37;95061.75;;;27.39;38.79
61292;BME280;47165;42.664;23.368;2022-08-11T09:23:05;95063.75;;;27.52;39.23
61292;BME280;47165;42.664;23.368;2022-08-11T09:25:54;95070.78;;;27.53;38.84
61292;BME280;47165;42.664;23.368;2022-08-11T09:28:41;95059.59;;;27.49;37.92
61292;BME280;47165;42.664;23.368;2022-08-11T09:31:07;95066.25;;;27.53;37.45
61292;BME280;47165;42.664;23.368;2022-08-11T09:33:35;95068.63;;;27.63;37.67
61292;BME280;47165;42.664;23.368;2022-08-11T09:36:01;95059.03;;;27.75;37.95
61292;BME280;47165;42.664;23.368;2022-08-11T09:38:47;95059.47;;;27.79;37.75
61292;BME280;47165;42.664;23.368;2022-08-11T09:41:32;95059.19;;;27.88;36.75
61292;BME280;47165;42.664;23.368;2022-08-11T09:44:00;95058.06;;;28.04;37.08
61292;BME280;47165;42.664;23.368;2022-08-11T09:46:45;95053.16;;;28.08;35.86
61292;BME280;47165;42.664;23.368;2022-08-11T09:49:11;95054.81;;;28.09;35.63
61292;BME280;47165;42.664;23.368;2022-08-11T09:51:37;95049.25;;;28.11;36.02
61292;BME280;47165;42.664;23.368;2022-08-11T09:54:04;95049.91;;;28.19;36.25
61292;BME280;47165;42.664;23.368;2022-08-11T09:56:33;95049.13;;;28.25;36.58
61292;BME280;47165;42.664;23.368;2022-08-11T09:59:28;95049.03;;;28.40;36.27
61292;BME280;47165;42.664;23.368;2022-08-11T10:01:57;95034.81;;;28.46;36.34
61292;BME280;47165;42.664;23.368;2022-08-11T10:04:39;95040.66;;;28.50;36.98
61292;BME280;47165;42.664;23.368;2022-08-11T10:07:06;95033.69;;;28.62;36.88
61292;BME280;47165;42.664;23.368;2022-08-11T10:10:02;95027.72;;;28.67;36.77
61292;BME280;47165;42.664;23.368;2022-08-11T10:12:36;95030.47;;;28.74;36.24
61292;BME280;47165;42.664;23.368;2022-08-11T10:15:07;95020.13;;;28.77;35.89
61292;BME280;47165;42.664;23.368;2022-08-11T10:17:56;95022.84;;;28.84;36.37
61292;BME280;47165;42.664;23.368;2022-08-11T10:20:42;95023.34;;;29.01;35.67
61292;BME280;47165;42.664;23.368;2022-08-11T10:23:11;95023.31;;;28.94;35.62
61292;BME280;47165;42.664;23.368;2022-08-11T10:25:56;95023.06;;;28.89;35.26
61292;BME280;47165;42.664;23.368;2022-08-11T10:28:40;95023.94;;;28.96;35.40
61292;BME280;47165;42.664;23.368;2022-08-11T10:31:06;95020.56;;;28.87;35.28
61292;BME280;47165;42.664;23.368;2022-08-11T10:33:52;95025.13;;;28.87;35.41
61292;BME280;47165;42.664;23.368;2022-08-11T10:36:32;95026.41;;;28.98;35.53
61292;BME280;47165;42.664;23.368;2022-08-11T10:39:00;95018.44;;;29.18;35.15
61292;BME280;47165;42.664;23.368;2022-08-11T10:41:27;95018.06;;;29.27;35.86
61292;BME280;47165;42.664;23.368;2022-08-11T10:44:11;95017.69;;;28.89;34.70
61292;BME280;47165;42.664;23.368;2022-08-11T10:46:38;95005.00;;;28.69;34.93
61292;BME280;47165;42.664;23.368;2022-08-11T10:49:22;95003.28;;;29.10;34.09
61292;BME280;47165;42.664;23.368;2022-08-11T10:51:49;95001.59;;;29.64;33.78
61292;BME280;47165;42.664;23.368;2022-08-11T10:54:34;95002.63;;;30.16;33.34
61292;BME280;47165;42.664;23.368;2022-08-11T10:57:19;94996.72;;;30.66;31.43
61292;BME280;47165;42.664;23.368;2022-08-11T11:00:04;94982.38;;;30.85;29.62
61292;BME280;47165;42.664;23.368;2022-08-11T11:02:31;94999.22;;;31.19;30.83
61292;BME280;47165;42.664;23.368;2022-08-11T11:05:11;94993.97;;;31.95;29.89
61292;BME280;47165;42.664;23.368;2022-08-11T11:07:40;94992.84;;;32.09;29.27
61292;BME280;47165;42.664;23.368;2022-08-11T11:10:12;94997.25;;;31.46;28.46
61292;BME280;47165;42.664;23.368;2022-08-11T11:12:43;94988.50;;;31.51;29.82
61292;BME280;47165;42.664;23.368;2022-08-11T11:15:30;94988.94;;;32.05;28.52
61292;BME280;47165;42.664;23.368;2022-08-11T11:18:19;94981.44;;;32.07;27.40
61292;BME280;47165;42.664;23.368;2022-08-11T11:20:53;94991.84;;;32.03;28.65
61292;BME280;47165;42.664;23.368;2022-08-11T11:34:22;94985.13;;;32.56;26.51
61292;BME280;47165;42.664;23.368;2022-08-11T11:36:56;94984.69;;;32.78;27.74
61292;BME280;47165;42.664;23.368;2022-08-11T11:39:25;94986.19;;;33.11;27.27
61292;BME280;47165;42.664;23.368;2022-08-11T11:41:53;94976.91;;;33.60;26.32
61292;BME280;47165;42.664;23.368;2022-08-11T11:44:21;94981.38;;;33.55;26.28
61292;BME280;47165;42.664;23.368;2022-08-11T11:46:48;94977.53;;;33.62;26.98
61292;BME280;47165;42.664;23.368;2022-08-11T11:49:16;94975.31;;;33.41;27.87
61292;BME280;47165;42.664;23.368;2022-08-11T11:51:44;94976.56;;;32.96;29.06
61292;BME280;47165;42.664;23.368;2022-08-11T11:54:13;94976.09;;;32.81;29.88
61292;BME280;47165;42.664;23.368;2022-08-11T11:56:40;94973.41;;;32.62;29.69
61292;BME280;47165;42.664;23.368;2022-08-11T11:59:07;94965.78;;;33.08;29.28
61292;BME280;47165;42.664;23.368;2022-08-11T12:01:51;94966.00;;;33.37;29.72
61292;BME280;47165;42.664;23.368;2022-08-11T12:04:19;94971.22;;;33.92;28.54
61292;BME280;47165;42.664;23.368;2022-08-11T12:06:45;94980.78;;;33.95;28.59
61292;BME280;47165;42.664;23.368;2022-08-11T12:09:11;94971.59;;;34.07;27.14
61292;BME280;47165;42.664;23.368;2022-08-11T12:11:43;94964.66;;;34.59;27.40
61292;BME280;47165;42.664;23.368;2022-08-11T12:14:28;94955.69;;;35.11;25.98
61292;BME280;47165;42.664;23.368;2022-08-11T12:16:55;94954.13;;;34.86;26.37
61292;BME280;47165;42.664;23.368;2022-08-11T12:19:23;94954.97;;;34.04;26.93
61292;BME280;47165;42.664;23.368;2022-08-11T12:21:51;94951.38;;;33.56;28.37
61292;BME280;47165;42.664;23.368;2022-08-11T12:27:59;94944.50;;;34.66;25.77
61292;BME280;47165;42.664;23.368;2022-08-11T12:30:25;94954.28;;;33.85;28.03
61292;BME280;47165;42.664;23.368;2022-08-11T12:32:51;94958.75;;;33.37;28.74
61292;BME280;47165;42.664;23.368;2022-08-11T12:35:17;94960.16;;;32.91;29.72
61292;BME280;47165;42.664;23.368;2022-08-11T12:37:51;94976.88;;;31.51;31.39
61292;BME280;47165;42.664;23.368;2022-08-11T12:40:24;94977.91;;;31.50;31.60
61292;BME280;47165;42.664;23.368;2022-08-11T12:43:16;94982.50;;;31.49;32.18
61292;BME280;47165;42.664;23.368;2022-08-11T12:46:04;94974.69;;;31.66;31.52
61292;BME280;47165;42.664;23.368;2022-08-11T12:48:32;94976.53;;;32.41;30.49
61292;BME280;47165;42.664;23.368;2022-08-11T12:51:22;94960.75;;;33.12;28.99
61292;BME280;47165;42.664;23.368;2022-08-11T12:54:14;94975.19;;;34.32;27.69
61292;BME280;47165;42.664;23.368;2022-08-11T12:56:47;94982.72;;;35.05;26.90
61292;BME280;47165;42.664;23.368;2022-08-11T12:59:33;94985.34;;;35.86;25.80
61292;BME280;47165;42.664;23.368;2022-08-11T13:02:20;94983.19;;;35.89;25.78
61292;BME280;47165;42.664;23.368;2022-08-11T13:05:07;94974.59;;;35.63;26.19
61292;BME280;47165;42.664;23.368;2022-08-11T13:07:33;94979.44;;;35.90;26.01
61292;BME280;47165;42.664;23.368;2022-08-11T13:10:03;94984.94;;;35.49;26.44
61292;BME280;47165;42.664;23.368;2022-08-11T13:12:30;94986.31;;;34.82;27.06
61292;BME280;47165;42.664;23.368;2022-08-11T13:15:22;94985.25;;;34.60;27.49
61292;BME280;47165;42.664;23.368;2022-08-11T13:17:50;94982.72;;;34.30;27.74
61292;BME280;47165;42.664;23.368;2022-08-11T13:20:18;94975.13;;;33.84;28.41
61292;BME280;47165;42.664;23.368;2022-08-11T13:22:48;94965.03;;;34.27;28.70
61292;BME280;47165;42.664;23.368;2022-08-11T13:25:15;94967.84;;;34.44;27.91
61292;BME280;47165;42.664;23.368;2022-08-11T13:27:43;94973.44;;;35.01;26.95
61292;BME280;47165;42.664;23.368;2022-08-11T13:30:11;94969.47;;;35.21;26.49
61292;BME280;47165;42.664;23.368;2022-08-11T13:32:56;94963.06;;;35.56;26.13
61292;BME280;47165;42.664;23.368;2022-08-11T13:35:23;94960.47;;;35.32;26.25
61292;BME280;47165;42.664;23.368;2022-08-11T13:37:49;94960.31;;;35.84;25.67
61292;BME280;47165;42.664;23.368;2022-08-11T13:40:17;94964.34;;;35.99;24.10
61292;BME280;47165;42.664;23.368;2022-08-11T13:42:44;94963.25;;;35.83;24.64
61292;BME280;47165;42.664;23.368;2022-08-11T13:45:11;94961.44;;;36.39;24.97
61292;BME280;47165;42.664;23.368;2022-08-11T13:47:37;94956.88;;;37.06;23.61
61292;BME280;47165;42.664;23.368;2022-08-11T13:50:06;94953.56;;;37.53;22.33
61292;BME280;47165;42.664;23.368;2022-08-11T13:52:33;94948.56;;;37.99;21.93
61292;BME280;47165;42.664;23.368;2022-08-11T13:55:00;94940.69;;;38.40;20.90
61292;BME280;47165;42.664;23.368;2022-08-11T13:57:29;94943.09;;;38.32;20.72
61292;BME280;47165;42.664;23.368;2022-08-11T13:59:58;94939.00;;;37.97;20.81
61292;BME280;47165;42.664;23.368;2022-08-11T14:02:36;94941.31;;;38.10;20.90
61292;BME280;47165;42.664;23.368;2022-08-11T14:05:13;94930.94;;;37.80;21.12
61292;BME280;47165;42.664;23.368;2022-08-11T14:07:54;94934.88;;;38.27;20.65
61292;BME280;47165;42.664;23.368;2022-08-11T14:10:26;94934.56;;;38.66;20.03
61292;BME280;47165;42.664;23.368;2022-08-11T14:12:58;94931.34;;;38.79;19.94
61292;BME280;47165;42.664;23.368;2022-08-11T14:15:44;94925.75;;;39.06;19.94
61292;BME280;47165;42.664;23.368;2022-08-11T14:20:47;94922.09;;;38.85;19.63
61292;BME280;47165;42.664;23.368;2022-08-11T14:23:44;94926.19;;;38.35;20.16
61292;BME280;47165;42.664;23.368;2022-08-11T14:26:12;94927.41;;;38.12;19.51
61292;BME280;47165;42.664;23.368;2022-08-11T14:28:48;94918.25;;;37.96;20.59
61292;BME280;47165;42.664;23.368;2022-08-11T14:31:17;94923.63;;;38.18;20.36
61292;BME280;47165;42.664;23.368;2022-08-11T14:33:44;94919.91;;;38.34;20.61
61292;BME280;47165;42.664;23.368;2022-08-11T14:36:10;94925.38;;;38.34;19.91
61292;BME280;47165;42.664;23.368;2022-08-11T14:38:37;94922.44;;;38.46;19.76
61292;BME280;47165;42.664;23.368;2022-08-11T14:41:04;94924.19;;;38.62;19.90
61292;BME280;47165;42.664;23.368;2022-08-11T14:43:49;94922.41;;;38.94;19.78
61292;BME280;47165;42.664;23.368;2022-08-11T14:46:48;94919.47;;;39.06;19.41
61292;BME280;47165;42.664;23.368;2022-08-11T14:49:34;94912.38;;;39.10;19.83
61292;BME280;47165;42.664;23.368;2022-08-11T14:52:06;94917.63;;;39.42;19.45
61292;BME280;47165;42.664;23.368;2022-08-11T14:54:33;94912.19;;;39.42;19.41
61292;BME280;47165;42.664;23.368;2022-08-11T14:57:19;94907.50;;;39.22;19.24
61292;BME280;47165;42.664;23.368;2022-08-11T14:59:46;94915.41;;;38.55;20.06
61292;BME280;47165;42.664;23.368;2022-08-11T15:02:13;94913.03;;;38.27;21.08
61292;BME280;47165;42.664;23.368;2022-08-11T15:04:59;94911.84;;;38.07;21.26
61292;BME280;47165;42.664;23.368;2022-08-11T15:07:28;94912.09;;;38.06;21.49
61292;BME280;47165;42.664;23.368;2022-08-11T15:09:56;94908.84;;;38.09;20.78
61292;BME280;47165;42.664;23.368;2022-08-11T15:12:23;94906.84;;;37.99;20.92
61292;BME280;47165;42.664;23.368;2022-08-11T15:14:49;94907.66;;;37.99;21.21
61292;BME280;47165;42.664;23.368;2022-08-11T15:17:34;94905.91;;;38.15;20.78
61292;BME280;47165;42.664;23.368;2022-08-11T15:20:02;94904.31;;;37.92;21.39
61292;BME280;47165;42.664;23.368;2022-08-11T15:22:46;94908.06;;;36.99;21.90
61292;BME280;47165;42.664;23.368;2022-08-11T15:25:31;94904.78;;;36.53;23.25
61292;BME280;47165;42.664;23.368;2022-08-11T15:27:59;94908.34;;;35.98;23.16
61292;BME280;47165;42.664;23.368;2022-08-11T15:30:45;94909.38;;;35.46;24.15
61292;BME280;47165;42.664;23.368;2022-08-11T15:33:30;94906.28;;;34.97;24.71
61292;BME280;47165;42.664;23.368;2022-08-11T15:36:15;94903.75;;;34.38;25.28
61292;BME280;47165;42.664;23.368;2022-08-11T15:39:08;94905.56;;;33.55;26.22
61292;BME280;47165;42.664;23.368;2022-08-11T15:41:48;94901.75;;;33.02;26.54
61292;BME280;47165;42.664;23.368;2022-08-11T15:44:36;94893.44;;;32.85;27.58
61292;BME280;47165;42.664;23.368;2022-08-11T15:47:27;94891.00;;;32.65;27.02
61292;BME280;47165;42.664;23.368;2022-08-11T15:49:54;94894.47;;;32.35;27.45
61292;BME280;47165;42.664;23.368;2022-08-11T15:52:24;94900.09;;;32.15;27.93
61292;BME280;47165;42.664;23.368;2022-08-11T15:54:55;94903.47;;;32.29;28.46
61292;BME280;47165;42.664;23.368;2022-08-11T15:57:24;94906.91;;;32.18;28.07
61292;BME280;47165;42.664;23.368;2022-08-11T16:00:09;94908.75;;;31.99;28.48
61292;BME280;47165;42.664;23.368;2022-08-11T16:02:55;94914.56;;;31.77;28.27
61292;BME280;47165;42.664;23.368;2022-08-11T16:05:42;94911.91;;;31.45;28.72
61292;BME280;47165;42.664;23.368;2022-08-11T16:08:10;94914.72;;;31.25;29.20
61292;BME280;47165;42.664;23.368;2022-08-11T16:10:36;94913.81;;;31.06;29.45
61292;BME280;47165;42.664;23.368;2022-08-11T16:13:04;94913.53;;;30.76;30.50
61292;BME280;47165;42.664;23.368;2022-08-11T16:15:32;94918.81;;;30.58;30.98
61292;BME280;47165;42.664;23.368;2022-08-11T16:18:21;94906.00;;;30.46;31.09
61292;BME280;47165;42.664;23.368;2022-08-11T16:20:50;94912.50;;;30.32;31.05
61292;BME280;47165;42.664;23.368;2022-08-11T16:23:19;94914.59;;;30.10;31.02
61292;BME280;47165;42.664;23.368;2022-08-11T16:25:50;94915.28;;;29.72;31.69
61292;BME280;47165;42.664;23.368;2022-08-11T16:28:17;94905.72;;;29.63;32.12
61292;BME280;47165;42.664;23.368;2022-08-11T16:30:45;94913.78;;;29.43;32.81
61292;BME280;47165;42.664;23.368;2022-08-11T16:33:11;94912.16;;;29.42;32.50
61292;BME280;47165;42.664;23.368;2022-08-11T16:35:42;94915.66;;;29.36;32.62
61292;BME280;47165;42.664;23.368;2022-08-11T16:38:28;94920.81;;;29.24;33.07
61292;BME280;47165;42.664;23.368;2022-08-11T16:41:05;94923.50;;;29.24;33.48
61292;BME280;47165;42.664;23.368;2022-08-11T16:43:38;94926.38;;;29.16;33.01
61292;BME280;47165;42.664;23.368;2022-08-11T16:46:24;94928.25;;;29.22;33.72
61292;BME280;47165;42.664;23.368;2022-08-11T16:49:16;94926.97;;;29.04;32.90
61292;BME280;47165;42.664;23.368;2022-08-11T16:51:43;94932.19;;;29.13;33.63
61292;BME280;47165;42.664;23.368;2022-08-11T16:54:09;94928.78;;;28.91;33.80
61292;BME280;47165;42.664;23.368;2022-08-11T16:56:49;94928.94;;;28.27;34.55
61292;BME280;47165;42.664;23.368;2022-08-11T16:59:23;94933.66;;;28.67;34.38
61292;BME280;47165;42.664;23.368;2022-08-11T17:07:20;94943.22;;;29.84;31.44
61292;BME280;47165;42.664;23.368;2022-08-11T17:10:06;94944.66;;;29.87;32.26